Rankings de siempre
Mejores tiempos personales válidos de atleta a través de todos los eventos y temporadas. Cada atleta aparece una vez por división.
Busca por nombre y abre la página donde está clasificado este récord de división.
179,683 atletas clasificados
| Pos. | Pos. AG | Atleta | Nacionalidad | Categoría de edad | TiempoMejor tiempo | Diferencia |
|---|---|---|---|---|---|---|
| 179426 | #39113 | John HorstUSA · M 35-39 · AG #39113 | USA | M 35-39 | 3:12:52 | +142:14 |
| 179427 | #46816 | J (GHOST1) MSIN · M 30-34 · AG #46816 | SIN | M 30-34 | 3:12:58 | +142:20 |
| 179428 | #14914 | Shannon HoyAUS · M 45-49 · AG #14914 | AUS | M 45-49 | 3:12:59 | +142:21 |
| 179429 | #26222 | Pavaris EamekpattanaTHA · M 40-44 · AG #26222 | THA | M 40-44 | 3:13:02 | +142:24 |
| 179430 | #39114 | Cristofer PonceCHI · M 35-39 · AG #39114 | CHI | M 35-39 | 3:13:03 | +142:25 |
| 179431 | #3744 | Renan AbagatUSA · M 55-59 · AG #3744 | USA | M 55-59 | 3:13:04 | +142:26 |
| 179432 | #39115 | Joe HakeUSA · M 35-39 · AG #39115 | USA | M 35-39 | 3:13:08 | +142:30 |
| 179433 | #46817 | Nitipat VangpreechaTHA · M 30-34 · AG #46817 | THA | M 30-34 | 3:13:14 | +142:36 |
| 179434 | #89 | George MunozUSA · M 70-74 · AG #89 | USA | M 70-74 | 3:13:14 | +142:36 |
| 179435 | #39116 | Nitesh KumarIND · M 35-39 · AG #39116 | IND | M 35-39 | 3:13:17 | +142:39 |
| 179436 | #18276 | Deependra Singh RajawatIND · M 16-24 · AG #18276 | IND | M 16-24 | 3:13:19 | +142:41 |
| 179437 | #39117 | Emmanuel Edrik UytiepoPHI · M 35-39 · AG #39117 | PHI | M 35-39 | 3:13:23 | +142:45 |
| 179438 | #18277 | JIRAYUT PHAENGMAJARINTHA · M 16-24 · AG #18277 | THA | M 16-24 | 3:13:31 | +142:53 |
| 179439 | #37431 | Khairuddin Abdul RashidSIN · M 25-29 · AG #37431 | SIN | M 25-29 | 3:13:32 | +142:54 |
| 179440 | #37432 | Boyang XUHKG · M 25-29 · AG #37432 | HKG | M 25-29 | 3:13:44 | +143:06 |
| 179441 | #37433 | Carlos BarocioMEX · M 25-29 · AG #37433 | MEX | M 25-29 | 3:13:52 | +143:14 |
| 179442 | #39118 | Rahul BanerjeeIND · M 35-39 · AG #39118 | IND | M 35-39 | 3:13:54 | +143:16 |
| 179443 | #18278 | Rasheed GoudedjiM 16-24 · AG #18278 | -- | M 16-24 | 3:13:57 | +143:19 |
| 179444 | #37434 | Prabhin KumarSIN · M 25-29 · AG #37434 | SIN | M 25-29 | 3:14:09 | +143:31 |
| 179445 | #46818 | Fernando MarquezUSA · M 30-34 · AG #46818 | USA | M 30-34 | 3:14:11 | +143:33 |
| 179446 | #37435 | 逸宇 陈CHN · M 25-29 · AG #37435 | CHN | M 25-29 | 3:14:15 | +143:37 |
| 179447 | #39119 | 文佳 周CHN · M 35-39 · AG #39119 | CHN | M 35-39 | 3:14:18 | +143:40 |
| 179448 | #39120 | Seng Wei NgMAS · M 35-39 · AG #39120 | MAS | M 35-39 | 3:14:22 | +143:44 |
| 179449 | #37436 | Fernando Yael Hernandez HinojosaMEX · M 25-29 · AG #37436 | MEX | M 25-29 | 3:14:27 | +143:49 |
| 179450 | #18279 | Danyal Bin Mohamed RedwanSIN · M 16-24 · AG #18279 | SIN | M 16-24 | 3:14:27 | +143:49 |
Página 7,178 de 7,188